K5SM

Sunlight Airport

Sunlight Mountain, Colorado, USA
METAR K5SM 171631Z AUTO 26006KT 10SM SCT070 OVC080 11/05 A3072 RMK AO2
Observed Flight Rules
Aug-17 @ 16:31 UTC (19 minutes ago) Visual Flight Rules
Wind Visibility Clouds
260° at 6 knots 10 miles
  • Scattered at 7,000' AGL
  • Overcast at 8,000' AGL
Temperatures Readings
Current 11°C / 52°F
Dewpoint 5°C / 41°F
Humidity 67%
Altimeter 30.72" Hg
Pressure 1040 hPa
Elevation 3232
METAR K5SM 171631Z AUTO 26006KT 10SM SCT070 OVC080 11/05 A3072 RMK AO2
Observed Flight Rules
Aug-17 @ 16:31 UTC
(19 minutes ago)
VFR
Wind Visibility
260° at 6 knots 10 miles
Clouds
  • Scattered at 7,000' AGL
  • Overcast at 8,000' AGL
Temperature Dewpoint
11°C / 52°F 5°C / 41°F
Humidity Altimeter Pressure
67% 30.72" Hg 1040 hPa